sensor_id;sensor_type;location;lat;lon;timestamp;temperature;humidity
51655;DHT22;37732;53.106;7.030;2023-05-29T00:00:34;10.10;99.90
51655;DHT22;37732;53.106;7.030;2023-05-29T00:02:59;10.10;99.90
51655;DHT22;37732;53.106;7.030;2023-05-29T00:05:29;10.10;99.90
51655;DHT22;37732;53.106;7.030;2023-05-29T00:07:55;10.10;99.90
51655;DHT22;37732;53.106;7.030;2023-05-29T00:10:22;10.00;99.90
51655;DHT22;37732;53.106;7.030;2023-05-29T00:12:48;10.00;99.90
51655;DHT22;37732;53.106;7.030;2023-05-29T00:15:15;10.00;99.90
51655;DHT22;37732;53.106;7.030;2023-05-29T00:17:41;9.90;99.90
51655;DHT22;37732;53.106;7.030;2023-05-29T00:20:09;10.00;99.90
51655;DHT22;37732;53.106;7.030;2023-05-29T00:22:36;9.90;99.90
51655;DHT22;37732;53.106;7.030;2023-05-29T00:25:07;9.90;99.90
51655;DHT22;37732;53.106;7.030;2023-05-29T00:27:34;9.90;99.90
51655;DHT22;37732;53.106;7.030;2023-05-29T00:30:02;9.90;99.90
51655;DHT22;37732;53.106;7.030;2023-05-29T00:32:28;9.80;99.90
51655;DHT22;37732;53.106;7.030;2023-05-29T00:34:55;9.80;99.90
51655;DHT22;37732;53.106;7.030;2023-05-29T00:37:21;9.80;99.90
51655;DHT22;37732;53.106;7.030;2023-05-29T00:39:50;9.70;99.90
51655;DHT22;37732;53.106;7.030;2023-05-29T00:42:16;9.70;99.90
51655;DHT22;37732;53.106;7.030;2023-05-29T00:44:41;9.70;99.90
51655;DHT22;37732;53.106;7.030;2023-05-29T00:47:07;9.70;99.90
51655;DHT22;37732;53.106;7.030;2023-05-29T00:49:35;9.70;99.90
51655;DHT22;37732;53.106;7.030;2023-05-29T00:52:01;9.60;99.90
51655;DHT22;37732;53.106;7.030;2023-05-29T00:54:29;9.60;99.90
51655;DHT22;37732;53.106;7.030;2023-05-29T00:56:58;9.60;99.90
51655;DHT22;37732;53.106;7.030;2023-05-29T00:59:30;9.60;99.90
51655;DHT22;37732;53.106;7.030;2023-05-29T01:01:59;9.60;99.90
51655;DHT22;37732;53.106;7.030;2023-05-29T01:04:26;9.50;99.90
51655;DHT22;37732;53.106;7.030;2023-05-29T01:06:52;9.50;99.90
51655;DHT22;37732;53.106;7.030;2023-05-29T01:09:19;9.50;99.90
51655;DHT22;37732;53.106;7.030;2023-05-29T01:17:28;9.50;99.90
51655;DHT22;37732;53.106;7.030;2023-05-29T01:22:35;9.40;99.90
51655;DHT22;37732;53.106;7.030;2023-05-29T01:25:35;9.40;99.90
51655;DHT22;37732;53.106;7.030;2023-05-29T01:28:10;9.40;99.90
51655;DHT22;37732;53.106;7.030;2023-05-29T01:30:38;9.30;99.90
51655;DHT22;37732;53.106;7.030;2023-05-29T01:33:05;9.30;99.90
51655;DHT22;37732;53.106;7.030;2023-05-29T01:35:32;9.30;99.90
51655;DHT22;37732;53.106;7.030;2023-05-29T01:37:58;9.30;99.90
51655;DHT22;37732;53.106;7.030;2023-05-29T01:40:24;9.30;99.90
51655;DHT22;37732;53.106;7.030;2023-05-29T01:42:50;9.30;99.90
51655;DHT22;37732;53.106;7.030;2023-05-29T01:45:17;9.20;99.90
51655;DHT22;37732;53.106;7.030;2023-05-29T01:47:43;9.20;99.90
51655;DHT22;37732;53.106;7.030;2023-05-29T01:50:11;9.20;99.90
51655;DHT22;37732;53.106;7.030;2023-05-29T01:52:38;9.20;99.90
51655;DHT22;37732;53.106;7.030;2023-05-29T01:57:30;9.20;99.90
51655;DHT22;37732;53.106;7.030;2023-05-29T01:59:56;9.10;99.90
51655;DHT22;37732;53.106;7.030;2023-05-29T02:02:22;9.00;99.90
51655;DHT22;37732;53.106;7.030;2023-05-29T02:04:50;9.10;99.90
51655;DHT22;37732;53.106;7.030;2023-05-29T02:07:17;9.00;99.90
51655;DHT22;37732;53.106;7.030;2023-05-29T02:09:43;9.00;99.90
51655;DHT22;37732;53.106;7.030;2023-05-29T02:12:09;9.00;99.90
51655;DHT22;37732;53.106;7.030;2023-05-29T02:14:34;9.00;99.90
51655;DHT22;37732;53.106;7.030;2023-05-29T02:17:01;9.00;99.90
51655;DHT22;37732;53.106;7.030;2023-05-29T02:19:27;8.90;99.90
51655;DHT22;37732;53.106;7.030;2023-05-29T02:21:54;8.90;99.90
51655;DHT22;37732;53.106;7.030;2023-05-29T02:24:21;8.90;99.90
51655;DHT22;37732;53.106;7.030;2023-05-29T02:26:48;8.90;99.90
51655;DHT22;37732;53.106;7.030;2023-05-29T02:29:15;8.90;99.90
51655;DHT22;37732;53.106;7.030;2023-05-29T02:31:41;8.80;99.90
51655;DHT22;37732;53.106;7.030;2023-05-29T02:34:07;8.80;99.90
51655;DHT22;37732;53.106;7.030;2023-05-29T02:36:34;8.80;99.90
51655;DHT22;37732;53.106;7.030;2023-05-29T02:39:03;8.80;99.90
51655;DHT22;37732;53.106;7.030;2023-05-29T02:41:29;8.80;99.90
51655;DHT22;37732;53.106;7.030;2023-05-29T02:43:54;8.80;99.90
51655;DHT22;37732;53.106;7.030;2023-05-29T02:46:21;8.80;99.90
51655;DHT22;37732;53.106;7.030;2023-05-29T02:48:48;8.80;99.90
51655;DHT22;37732;53.106;7.030;2023-05-29T02:51:14;8.80;99.90
51655;DHT22;37732;53.106;7.030;2023-05-29T02:53:40;8.80;99.90
51655;DHT22;37732;53.106;7.030;2023-05-29T02:56:06;8.80;99.90
51655;DHT22;37732;53.106;7.030;2023-05-29T02:58:33;8.80;99.90
51655;DHT22;37732;53.106;7.030;2023-05-29T03:01:01;8.80;99.90
51655;DHT22;37732;53.106;7.030;2023-05-29T03:03:30;8.80;99.90
51655;DHT22;37732;53.106;7.030;2023-05-29T03:05:58;8.80;99.90
51655;DHT22;37732;53.106;7.030;2023-05-29T03:08:25;8.80;99.90
51655;DHT22;37732;53.106;7.030;2023-05-29T03:10:51;8.80;99.90
51655;DHT22;37732;53.106;7.030;2023-05-29T03:13:18;8.80;99.90
51655;DHT22;37732;53.106;7.030;2023-05-29T03:15:44;8.70;99.90
51655;DHT22;37732;53.106;7.030;2023-05-29T03:18:10;8.70;99.90
51655;DHT22;37732;53.106;7.030;2023-05-29T03:20:37;8.70;99.90
51655;DHT22;37732;53.106;7.030;2023-05-29T03:23:04;8.70;99.90
51655;DHT22;37732;53.106;7.030;2023-05-29T03:25:31;8.60;99.90
51655;DHT22;37732;53.106;7.030;2023-05-29T03:27:58;8.60;99.90
51655;DHT22;37732;53.106;7.030;2023-05-29T03:30:25;8.60;99.90
51655;DHT22;37732;53.106;7.030;2023-05-29T03:32:52;8.60;99.90
51655;DHT22;37732;53.106;7.030;2023-05-29T03:35:19;8.60;99.90
51655;DHT22;37732;53.106;7.030;2023-05-29T03:37:45;8.60;99.90
51655;DHT22;37732;53.106;7.030;2023-05-29T03:40:12;8.60;99.90
51655;DHT22;37732;53.106;7.030;2023-05-29T03:42:38;8.60;99.90
51655;DHT22;37732;53.106;7.030;2023-05-29T03:45:04;8.60;99.90
51655;DHT22;37732;53.106;7.030;2023-05-29T03:47:30;8.60;99.90
51655;DHT22;37732;53.106;7.030;2023-05-29T03:49:55;8.60;99.90
51655;DHT22;37732;53.106;7.030;2023-05-29T03:52:21;8.60;99.90
51655;DHT22;37732;53.106;7.030;2023-05-29T03:54:48;8.60;99.90
51655;DHT22;37732;53.106;7.030;2023-05-29T03:57:14;8.70;99.90
51655;DHT22;37732;53.106;7.030;2023-05-29T03:59:42;8.70;99.90
51655;DHT22;37732;53.106;7.030;2023-05-29T04:02:08;8.70;99.90
51655;DHT22;37732;53.106;7.030;2023-05-29T04:04:34;8.70;99.90
51655;DHT22;37732;53.106;7.030;2023-05-29T04:07:03;8.70;99.90
51655;DHT22;37732;53.106;7.030;2023-05-29T04:09:29;8.80;99.90
51655;DHT22;37732;53.106;7.030;2023-05-29T04:11:55;8.80;99.90
51655;DHT22;37732;53.106;7.030;2023-05-29T04:14:21;8.80;99.90
51655;DHT22;37732;53.106;7.030;2023-05-29T04:16:50;8.90;99.90
51655;DHT22;37732;53.106;7.030;2023-05-29T04:19:16;8.90;99.90
51655;DHT22;37732;53.106;7.030;2023-05-29T04:21:43;8.90;99.90
51655;DHT22;37732;53.106;7.030;2023-05-29T04:24:10;8.90;99.90
51655;DHT22;37732;53.106;7.030;2023-05-29T04:26:37;9.00;99.90
51655;DHT22;37732;53.106;7.030;2023-05-29T04:29:11;9.00;99.90
51655;DHT22;37732;53.106;7.030;2023-05-29T04:31:38;9.00;99.90
51655;DHT22;37732;53.106;7.030;2023-05-29T04:34:05;9.10;99.90
51655;DHT22;37732;53.106;7.030;2023-05-29T04:36:31;9.10;99.90
51655;DHT22;37732;53.106;7.030;2023-05-29T04:38:59;9.20;99.90
51655;DHT22;37732;53.106;7.030;2023-05-29T04:41:26;9.20;99.90
51655;DHT22;37732;53.106;7.030;2023-05-29T04:43:59;9.20;99.90
51655;DHT22;37732;53.106;7.030;2023-05-29T04:46:25;9.30;99.90
51655;DHT22;37732;53.106;7.030;2023-05-29T04:48:51;9.40;99.90
51655;DHT22;37732;53.106;7.030;2023-05-29T04:51:23;9.50;99.90
51655;DHT22;37732;53.106;7.030;2023-05-29T04:53:50;9.50;99.90
51655;DHT22;37732;53.106;7.030;2023-05-29T04:56:17;9.60;99.90
51655;DHT22;37732;53.106;7.030;2023-05-29T04:58:44;9.70;99.90
51655;DHT22;37732;53.106;7.030;2023-05-29T05:01:12;9.70;99.90
51655;DHT22;37732;53.106;7.030;2023-05-29T05:03:41;9.80;99.90
51655;DHT22;37732;53.106;7.030;2023-05-29T05:06:07;9.90;99.90
51655;DHT22;37732;53.106;7.030;2023-05-29T05:08:34;9.90;99.90
51655;DHT22;37732;53.106;7.030;2023-05-29T05:11:02;10.00;99.90
51655;DHT22;37732;53.106;7.030;2023-05-29T05:13:29;10.00;99.90
51655;DHT22;37732;53.106;7.030;2023-05-29T05:15:55;10.10;99.90
51655;DHT22;37732;53.106;7.030;2023-05-29T05:18:22;10.20;99.90
51655;DHT22;37732;53.106;7.030;2023-05-29T05:20:48;10.20;99.90
51655;DHT22;37732;53.106;7.030;2023-05-29T05:23:15;10.30;99.90
51655;DHT22;37732;53.106;7.030;2023-05-29T05:25:44;10.40;99.90
51655;DHT22;37732;53.106;7.030;2023-05-29T05:28:12;10.50;99.90
51655;DHT22;37732;53.106;7.030;2023-05-29T05:30:39;10.60;99.90
51655;DHT22;37732;53.106;7.030;2023-05-29T05:33:06;10.70;99.90
51655;DHT22;37732;53.106;7.030;2023-05-29T05:35:33;10.70;99.90
51655;DHT22;37732;53.106;7.030;2023-05-29T05:38:00;10.80;99.90
51655;DHT22;37732;53.106;7.030;2023-05-29T05:40:26;10.90;99.90
51655;DHT22;37732;53.106;7.030;2023-05-29T05:42:55;10.90;99.90
51655;DHT22;37732;53.106;7.030;2023-05-29T05:45:23;11.00;99.90
51655;DHT22;37732;53.106;7.030;2023-05-29T05:47:49;11.00;99.90
51655;DHT22;37732;53.106;7.030;2023-05-29T05:50:16;11.00;99.90
51655;DHT22;37732;53.106;7.030;2023-05-29T05:52:42;11.10;99.90
51655;DHT22;37732;53.106;7.030;2023-05-29T05:55:08;11.10;99.90
51655;DHT22;37732;53.106;7.030;2023-05-29T05:57:34;11.10;99.90
51655;DHT22;37732;53.106;7.030;2023-05-29T06:00:03;11.10;99.90
51655;DHT22;37732;53.106;7.030;2023-05-29T06:02:34;11.20;99.90
51655;DHT22;37732;53.106;7.030;2023-05-29T06:05:01;11.40;99.90
51655;DHT22;37732;53.106;7.030;2023-05-29T06:07:29;11.60;99.90
51655;DHT22;37732;53.106;7.030;2023-05-29T06:09:55;11.70;99.90
51655;DHT22;37732;53.106;7.030;2023-05-29T06:12:22;11.80;99.90
51655;DHT22;37732;53.106;7.030;2023-05-29T06:14:50;11.90;99.90
51655;DHT22;37732;53.106;7.030;2023-05-29T06:17:17;12.00;99.90
51655;DHT22;37732;53.106;7.030;2023-05-29T06:19:43;12.20;99.90
51655;DHT22;37732;53.106;7.030;2023-05-29T06:22:09;12.40;99.90
51655;DHT22;37732;53.106;7.030;2023-05-29T06:24:36;12.60;99.90
51655;DHT22;37732;53.106;7.030;2023-05-29T06:27:03;12.70;99.90
51655;DHT22;37732;53.106;7.030;2023-05-29T06:29:30;12.80;99.90
51655;DHT22;37732;53.106;7.030;2023-05-29T06:31:57;12.90;99.90
51655;DHT22;37732;53.106;7.030;2023-05-29T06:34:23;13.10;99.90
51655;DHT22;37732;53.106;7.030;2023-05-29T06:36:49;13.20;99.90
51655;DHT22;37732;53.106;7.030;2023-05-29T06:39:16;13.40;99.90
51655;DHT22;37732;53.106;7.030;2023-05-29T06:41:45;13.60;99.90
51655;DHT22;37732;53.106;7.030;2023-05-29T06:44:11;13.60;99.90
51655;DHT22;37732;53.106;7.030;2023-05-29T06:46:37;13.70;99.90
51655;DHT22;37732;53.106;7.030;2023-05-29T06:49:04;13.70;99.90
51655;DHT22;37732;53.106;7.030;2023-05-29T06:51:30;13.80;99.90
51655;DHT22;37732;53.106;7.030;2023-05-29T06:53:57;13.90;99.90
51655;DHT22;37732;53.106;7.030;2023-05-29T06:56:23;14.00;99.90
51655;DHT22;37732;53.106;7.030;2023-05-29T06:58:49;14.00;99.90
51655;DHT22;37732;53.106;7.030;2023-05-29T07:01:16;14.10;99.90
51655;DHT22;37732;53.106;7.030;2023-05-29T07:03:43;14.10;99.90
51655;DHT22;37732;53.106;7.030;2023-05-29T07:06:10;14.20;99.90
51655;DHT22;37732;53.106;7.030;2023-05-29T07:08:38;14.20;99.90
51655;DHT22;37732;53.106;7.030;2023-05-29T07:11:06;14.30;99.90
51655;DHT22;37732;53.106;7.030;2023-05-29T07:13:34;14.40;99.90
51655;DHT22;37732;53.106;7.030;2023-05-29T07:16:01;14.40;99.90
51655;DHT22;37732;53.106;7.030;2023-05-29T07:18:28;14.40;99.90
51655;DHT22;37732;53.106;7.030;2023-05-29T07:20:56;14.30;99.90
51655;DHT22;37732;53.106;7.030;2023-05-29T07:23:24;14.30;99.90
51655;DHT22;37732;53.106;7.030;2023-05-29T07:25:51;14.30;99.90
51655;DHT22;37732;53.106;7.030;2023-05-29T07:28:17;14.30;99.90
51655;DHT22;37732;53.106;7.030;2023-05-29T07:30:44;14.30;99.90
51655;DHT22;37732;53.106;7.030;2023-05-29T07:33:11;14.30;99.90
51655;DHT22;37732;53.106;7.030;2023-05-29T07:35:39;14.50;99.90
51655;DHT22;37732;53.106;7.030;2023-05-29T07:38:05;14.50;99.90
51655;DHT22;37732;53.106;7.030;2023-05-29T07:40:32;14.70;99.90
51655;DHT22;37732;53.106;7.030;2023-05-29T07:42:59;14.90;99.90
51655;DHT22;37732;53.106;7.030;2023-05-29T07:45:26;15.00;99.90
51655;DHT22;37732;53.106;7.030;2023-05-29T07:47:53;15.10;99.90
51655;DHT22;37732;53.106;7.030;2023-05-29T07:50:20;15.20;99.90
51655;DHT22;37732;53.106;7.030;2023-05-29T07:52:47;15.30;99.90
51655;DHT22;37732;53.106;7.030;2023-05-29T07:55:14;15.30;99.90
51655;DHT22;37732;53.106;7.030;2023-05-29T07:57:41;15.30;99.90
51655;DHT22;37732;53.106;7.030;2023-05-29T08:00:07;15.30;99.90
51655;DHT22;37732;53.106;7.030;2023-05-29T08:02:36;15.50;99.90
51655;DHT22;37732;53.106;7.030;2023-05-29T08:05:03;15.60;99.90
51655;DHT22;37732;53.106;7.030;2023-05-29T08:07:29;15.70;99.90
51655;DHT22;37732;53.106;7.030;2023-05-29T08:09:56;15.70;99.90
51655;DHT22;37732;53.106;7.030;2023-05-29T08:12:22;16.20;99.90
51655;DHT22;37732;53.106;7.030;2023-05-29T08:14:48;15.90;99.90
51655;DHT22;37732;53.106;7.030;2023-05-29T08:17:14;16.00;99.90
51655;DHT22;37732;53.106;7.030;2023-05-29T08:19:41;16.10;99.90
51655;DHT22;37732;53.106;7.030;2023-05-29T08:22:12;16.20;99.90
51655;DHT22;37732;53.106;7.030;2023-05-29T08:24:40;16.40;99.90
51655;DHT22;37732;53.106;7.030;2023-05-29T08:27:07;16.50;99.90
51655;DHT22;37732;53.106;7.030;2023-05-29T08:29:34;16.60;99.90
51655;DHT22;37732;53.106;7.030;2023-05-29T08:32:02;16.80;99.90
51655;DHT22;37732;53.106;7.030;2023-05-29T08:34:29;16.80;99.80
51655;DHT22;37732;53.106;7.030;2023-05-29T08:36:56;16.40;99.70
51655;DHT22;37732;53.106;7.030;2023-05-29T08:39:23;16.60;99.40
51655;DHT22;37732;53.106;7.030;2023-05-29T08:44:25;16.70;99.70
51655;DHT22;37732;53.106;7.030;2023-05-29T08:46:55;16.70;99.90
51655;DHT22;37732;53.106;7.030;2023-05-29T08:49:21;16.80;99.90
51655;DHT22;37732;53.106;7.030;2023-05-29T08:52:04;16.90;99.90
51655;DHT22;37732;53.106;7.030;2023-05-29T08:54:36;17.00;99.70
51655;DHT22;37732;53.106;7.030;2023-05-29T08:57:02;16.90;99.70
51655;DHT22;37732;53.106;7.030;2023-05-29T08:59:30;16.90;99.70
51655;DHT22;37732;53.106;7.030;2023-05-29T09:01:57;16.90;99.60
51655;DHT22;37732;53.106;7.030;2023-05-29T09:04:24;17.00;99.80
51655;DHT22;37732;53.106;7.030;2023-05-29T09:06:50;17.00;99.80
51655;DHT22;37732;53.106;7.030;2023-05-29T09:09:19;17.10;99.60
51655;DHT22;37732;53.106;7.030;2023-05-29T09:11:47;17.10;99.30
51655;DHT22;37732;53.106;7.030;2023-05-29T09:14:32;17.10;99.10
51655;DHT22;37732;53.106;7.030;2023-05-29T09:17:03;17.20;99.40
51655;DHT22;37732;53.106;7.030;2023-05-29T09:19:30;17.20;99.50
51655;DHT22;37732;53.106;7.030;2023-05-29T09:22:04;17.30;99.50
51655;DHT22;37732;53.106;7.030;2023-05-29T09:24:37;17.50;99.20
51655;DHT22;37732;53.106;7.030;2023-05-29T09:27:04;17.40;98.80
51655;DHT22;37732;53.106;7.030;2023-05-29T09:29:40;17.50;98.70
51655;DHT22;37732;53.106;7.030;2023-05-29T09:32:09;17.60;99.00
51655;DHT22;37732;53.106;7.030;2023-05-29T09:34:37;17.70;98.60
51655;DHT22;37732;53.106;7.030;2023-05-29T09:37:06;17.70;97.70
51655;DHT22;37732;53.106;7.030;2023-05-29T09:39:48;17.70;97.50
51655;DHT22;37732;53.106;7.030;2023-05-29T09:42:15;17.80;96.90
51655;DHT22;37732;53.106;7.030;2023-05-29T09:44:44;17.90;98.10
51655;DHT22;37732;53.106;7.030;2023-05-29T09:47:18;17.90;97.80
51655;DHT22;37732;53.106;7.030;2023-05-29T09:49:44;18.10;97.70
51655;DHT22;37732;53.106;7.030;2023-05-29T09:52:14;18.10;97.00
51655;DHT22;37732;53.106;7.030;2023-05-29T09:54:44;17.90;96.20
51655;DHT22;37732;53.106;7.030;2023-05-29T09:57:17;18.00;96.80
51655;DHT22;37732;53.106;7.030;2023-05-29T09:59:46;18.00;96.70
51655;DHT22;37732;53.106;7.030;2023-05-29T10:02:18;18.10;96.80
51655;DHT22;37732;53.106;7.030;2023-05-29T10:04:44;18.20;96.80
51655;DHT22;37732;53.106;7.030;2023-05-29T10:07:34;18.30;96.70
51655;DHT22;37732;53.106;7.030;2023-05-29T10:10:05;18.40;96.40
51655;DHT22;37732;53.106;7.030;2023-05-29T10:12:36;18.50;96.10
51655;DHT22;37732;53.106;7.030;2023-05-29T10:15:16;18.50;95.50
51655;DHT22;37732;53.106;7.030;2023-05-29T10:18:02;18.50;95.60
51655;DHT22;37732;53.106;7.030;2023-05-29T10:20:33;18.60;94.90
51655;DHT22;37732;53.106;7.030;2023-05-29T10:23:00;18.60;94.80
51655;DHT22;37732;53.106;7.030;2023-05-29T10:25:29;18.70;95.80
51655;DHT22;37732;53.106;7.030;2023-05-29T10:27:59;18.70;95.40
51655;DHT22;37732;53.106;7.030;2023-05-29T10:36:07;18.50;95.20
51655;DHT22;37732;53.106;7.030;2023-05-29T10:38:35;18.30;94.00
51655;DHT22;37732;53.106;7.030;2023-05-29T10:43:59;18.30;94.80
51655;DHT22;37732;53.106;7.030;2023-05-29T10:49:18;18.60;94.20
51655;DHT22;37732;53.106;7.030;2023-05-29T10:51:44;18.70;94.50
51655;DHT22;37732;53.106;7.030;2023-05-29T10:54:10;18.80;93.60
51655;DHT22;37732;53.106;7.030;2023-05-29T10:56:37;18.80;93.90
51655;DHT22;37732;53.106;7.030;2023-05-29T10:59:03;18.80;93.60
51655;DHT22;37732;53.106;7.030;2023-05-29T11:01:30;18.80;93.30
51655;DHT22;37732;53.106;7.030;2023-05-29T11:06:44;18.70;93.90
51655;DHT22;37732;53.106;7.030;2023-05-29T11:12:22;18.90;92.90
51655;DHT22;37732;53.106;7.030;2023-05-29T11:15:08;18.70;93.20
51655;DHT22;37732;53.106;7.030;2023-05-29T11:20:17;19.00;93.50
51655;DHT22;37732;53.106;7.030;2023-05-29T11:25:25;19.10;91.50
51655;DHT22;37732;53.106;7.030;2023-05-29T11:27:50;19.10;91.60
51655;DHT22;37732;53.106;7.030;2023-05-29T11:30:20;19.20;91.30
51655;DHT22;37732;53.106;7.030;2023-05-29T11:32:47;19.40;91.60
51655;DHT22;37732;53.106;7.030;2023-05-29T11:35:13;19.50;90.70
51655;DHT22;37732;53.106;7.030;2023-05-29T11:37:40;19.60;89.80
51655;DHT22;37732;53.106;7.030;2023-05-29T11:40:10;19.40;88.80
51655;DHT22;37732;53.106;7.030;2023-05-29T11:42:46;19.50;90.00
51655;DHT22;37732;53.106;7.030;2023-05-29T11:45:15;19.50;90.70
51655;DHT22;37732;53.106;7.030;2023-05-29T11:48:00;19.80;91.50
51655;DHT22;37732;53.106;7.030;2023-05-29T11:50:30;19.40;88.50
51655;DHT22;37732;53.106;7.030;2023-05-29T11:52:58;19.10;88.80
51655;DHT22;37732;53.106;7.030;2023-05-29T11:55:25;19.00;89.70
51655;DHT22;37732;53.106;7.030;2023-05-29T11:57:57;18.90;90.20
51655;DHT22;37732;53.106;7.030;2023-05-29T12:00:25;18.90;89.70
51655;DHT22;37732;53.106;7.030;2023-05-29T12:02:51;18.80;89.10
51655;DHT22;37732;53.106;7.030;2023-05-29T12:05:18;19.00;90.10
51655;DHT22;37732;53.106;7.030;2023-05-29T12:07:48;19.00;90.20
51655;DHT22;37732;53.106;7.030;2023-05-29T12:10:16;19.10;85.90
51655;DHT22;37732;53.106;7.030;2023-05-29T12:12:52;19.00;85.40
51655;DHT22;37732;53.106;7.030;2023-05-29T12:15:19;19.00;86.50
51655;DHT22;37732;53.106;7.030;2023-05-29T12:17:45;19.00;87.50
51655;DHT22;37732;53.106;7.030;2023-05-29T12:20:13;19.20;87.50
51655;DHT22;37732;53.106;7.030;2023-05-29T12:22:40;19.10;84.20
51655;DHT22;37732;53.106;7.030;2023-05-29T12:27:42;19.30;86.40
51655;DHT22;37732;53.106;7.030;2023-05-29T12:30:09;19.30;85.30
51655;DHT22;37732;53.106;7.030;2023-05-29T12:32:44;19.50;86.00
51655;DHT22;37732;53.106;7.030;2023-05-29T12:35:27;19.60;85.30
51655;DHT22;37732;53.106;7.030;2023-05-29T12:37:58;19.60;82.30
51655;DHT22;37732;53.106;7.030;2023-05-29T12:42:59;19.80;82.30
51655;DHT22;37732;53.106;7.030;2023-05-29T12:45:27;19.90;81.80
51655;DHT22;37732;53.106;7.030;2023-05-29T12:47:59;19.90;82.70
51655;DHT22;37732;53.106;7.030;2023-05-29T12:50:28;20.00;83.10
51655;DHT22;37732;53.106;7.030;2023-05-29T12:53:07;19.90;79.90
51655;DHT22;37732;53.106;7.030;2023-05-29T12:55:37;20.00;81.30
51655;DHT22;37732;53.106;7.030;2023-05-29T12:58:10;20.00;81.70
51655;DHT22;37732;53.106;7.030;2023-05-29T13:00:43;19.80;79.30
51655;DHT22;37732;53.106;7.030;2023-05-29T13:03:09;19.80;81.80
51655;DHT22;37732;53.106;7.030;2023-05-29T13:05:37;19.80;80.70
51655;DHT22;37732;53.106;7.030;2023-05-29T13:08:06;20.00;80.20
51655;DHT22;37732;53.106;7.030;2023-05-29T13:10:33;20.00;80.70
51655;DHT22;37732;53.106;7.030;2023-05-29T13:13:00;20.00;78.20
51655;DHT22;37732;53.106;7.030;2023-05-29T13:15:25;20.10;79.00
51655;DHT22;37732;53.106;7.030;2023-05-29T13:17:54;20.10;78.30
51655;DHT22;37732;53.106;7.030;2023-05-29T13:20:20;20.10;78.60
51655;DHT22;37732;53.106;7.030;2023-05-29T13:22:47;20.20;80.10
51655;DHT22;37732;53.106;7.030;2023-05-29T13:25:15;20.20;80.10
51655;DHT22;37732;53.106;7.030;2023-05-29T13:27:46;20.20;78.70
51655;DHT22;37732;53.106;7.030;2023-05-29T13:30:16;20.30;78.50
51655;DHT22;37732;53.106;7.030;2023-05-29T13:32:42;20.30;77.80
51655;DHT22;37732;53.106;7.030;2023-05-29T13:35:09;20.20;75.70
51655;DHT22;37732;53.106;7.030;2023-05-29T13:37:36;20.20;74.90
51655;DHT22;37732;53.106;7.030;2023-05-29T13:40:06;20.30;75.50
51655;DHT22;37732;53.106;7.030;2023-05-29T13:42:33;20.10;73.60
51655;DHT22;37732;53.106;7.030;2023-05-29T13:44:59;20.20;75.20
51655;DHT22;37732;53.106;7.030;2023-05-29T13:47:26;20.30;75.10
51655;DHT22;37732;53.106;7.030;2023-05-29T13:49:55;20.30;73.30
51655;DHT22;37732;53.106;7.030;2023-05-29T13:52:22;20.20;74.20
51655;DHT22;37732;53.106;7.030;2023-05-29T13:54:49;20.20;73.70
51655;DHT22;37732;53.106;7.030;2023-05-29T13:57:17;20.20;74.20
51655;DHT22;37732;53.106;7.030;2023-05-29T13:59:44;20.40;75.30
51655;DHT22;37732;53.106;7.030;2023-05-29T14:02:11;20.50;74.60
51655;DHT22;37732;53.106;7.030;2023-05-29T14:04:39;20.30;72.80
51655;DHT22;37732;53.106;7.030;2023-05-29T14:07:06;20.30;72.60
51655;DHT22;37732;53.106;7.030;2023-05-29T14:09:34;20.30;71.40
51655;DHT22;37732;53.106;7.030;2023-05-29T14:12:01;20.10;71.60
51655;DHT22;37732;53.106;7.030;2023-05-29T14:14:28;19.90;70.50
51655;DHT22;37732;53.106;7.030;2023-05-29T14:16:55;20.00;71.90
51655;DHT22;37732;53.106;7.030;2023-05-29T14:19:22;20.10;72.30
51655;DHT22;37732;53.106;7.030;2023-05-29T14:21:50;20.20;72.40
51655;DHT22;37732;53.106;7.030;2023-05-29T14:24:16;20.30;70.40
51655;DHT22;37732;53.106;7.030;2023-05-29T14:26:44;20.30;69.10
51655;DHT22;37732;53.106;7.030;2023-05-29T14:29:13;20.30;69.70
51655;DHT22;37732;53.106;7.030;2023-05-29T14:31:40;20.40;70.80
51655;DHT22;37732;53.106;7.030;2023-05-29T14:34:06;20.40;69.90
51655;DHT22;37732;53.106;7.030;2023-05-29T14:36:33;20.20;69.40
51655;DHT22;37732;53.106;7.030;2023-05-29T14:39:00;20.10;68.80
51655;DHT22;37732;53.106;7.030;2023-05-29T14:41:27;19.90;69.50
51655;DHT22;37732;53.106;7.030;2023-05-29T14:43:54;19.90;71.20
51655;DHT22;37732;53.106;7.030;2023-05-29T14:46:25;20.00;71.40
51655;DHT22;37732;53.106;7.030;2023-05-29T14:48:52;20.10;70.80
51655;DHT22;37732;53.106;7.030;2023-05-29T14:51:19;20.20;70.80
51655;DHT22;37732;53.106;7.030;2023-05-29T14:53:47;20.20;70.10
51655;DHT22;37732;53.106;7.030;2023-05-29T14:56:14;20.30;68.20
51655;DHT22;37732;53.106;7.030;2023-05-29T14:58:40;20.30;67.60
51655;DHT22;37732;53.106;7.030;2023-05-29T15:01:07;20.30;66.50
51655;DHT22;37732;53.106;7.030;2023-05-29T15:03:33;20.30;67.10
51655;DHT22;37732;53.106;7.030;2023-05-29T15:06:01;20.30;66.20
51655;DHT22;37732;53.106;7.030;2023-05-29T15:08:29;20.10;65.10
51655;DHT22;37732;53.106;7.030;2023-05-29T15:11:03;20.10;64.40
51655;DHT22;37732;53.106;7.030;2023-05-29T15:13:29;20.10;62.40
51655;DHT22;37732;53.106;7.030;2023-05-29T15:15:57;19.90;62.20
51655;DHT22;37732;53.106;7.030;2023-05-29T15:18:26;19.90;61.60
51655;DHT22;37732;53.106;7.030;2023-05-29T15:20:53;19.70;60.90
51655;DHT22;37732;53.106;7.030;2023-05-29T15:23:20;19.70;60.70
51655;DHT22;37732;53.106;7.030;2023-05-29T15:25:49;19.80;61.20
51655;DHT22;37732;53.106;7.030;2023-05-29T15:28:16;19.80;60.80
51655;DHT22;37732;53.106;7.030;2023-05-29T15:30:42;19.70;59.70
51655;DHT22;37732;53.106;7.030;2023-05-29T15:33:09;19.70;60.40
51655;DHT22;37732;53.106;7.030;2023-05-29T15:35:39;19.60;59.80
51655;DHT22;37732;53.106;7.030;2023-05-29T15:38:10;19.60;58.90
51655;DHT22;37732;53.106;7.030;2023-05-29T15:40:37;19.60;58.40
51655;DHT22;37732;53.106;7.030;2023-05-29T15:43:03;19.50;57.90
51655;DHT22;37732;53.106;7.030;2023-05-29T15:45:30;19.40;57.80
51655;DHT22;37732;53.106;7.030;2023-05-29T15:47:57;19.50;59.50
51655;DHT22;37732;53.106;7.030;2023-05-29T15:50:25;19.50;60.10
51655;DHT22;37732;53.106;7.030;2023-05-29T15:52:52;19.50;60.30
51655;DHT22;37732;53.106;7.030;2023-05-29T15:55:20;18.90;60.70
51655;DHT22;37732;53.106;7.030;2023-05-29T15:57:49;19.00;61.40
51655;DHT22;37732;53.106;7.030;2023-05-29T16:00:16;18.90;62.00
51655;DHT22;37732;53.106;7.030;2023-05-29T16:02:44;18.90;62.60
51655;DHT22;37732;53.106;7.030;2023-05-29T16:05:11;18.80;63.40
51655;DHT22;37732;53.106;7.030;2023-05-29T16:07:38;18.60;62.80
51655;DHT22;37732;53.106;7.030;2023-05-29T16:10:06;18.40;62.50
51655;DHT22;37732;53.106;7.030;2023-05-29T16:12:33;18.20;61.90
51655;DHT22;37732;53.106;7.030;2023-05-29T16:15:00;18.10;63.40
51655;DHT22;37732;53.106;7.030;2023-05-29T16:17:27;18.10;65.10
51655;DHT22;37732;53.106;7.030;2023-05-29T16:19:54;17.90;65.50